sensor_id;sensor_type;location;lat;lon;timestamp;temperature;humidity
17599;DHT22;8918;52.092;5.232;2023-05-10T00:01:50;12.80;99.90
17599;DHT22;8918;52.092;5.232;2023-05-10T00:04:16;12.80;99.90
17599;DHT22;8918;52.092;5.232;2023-05-10T00:06:41;12.80;99.90
17599;DHT22;8918;52.092;5.232;2023-05-10T00:09:07;12.80;99.90
17599;DHT22;8918;52.092;5.232;2023-05-10T00:11:33;12.80;99.90
17599;DHT22;8918;52.092;5.232;2023-05-10T00:13:58;12.80;99.90
17599;DHT22;8918;52.092;5.232;2023-05-10T00:16:24;12.70;99.90
17599;DHT22;8918;52.092;5.232;2023-05-10T00:18:49;12.70;99.90
17599;DHT22;8918;52.092;5.232;2023-05-10T00:21:15;12.70;99.90
17599;DHT22;8918;52.092;5.232;2023-05-10T00:23:40;12.70;99.90
17599;DHT22;8918;52.092;5.232;2023-05-10T00:26:06;12.70;99.90
17599;DHT22;8918;52.092;5.232;2023-05-10T00:28:31;12.70;99.90
17599;DHT22;8918;52.092;5.232;2023-05-10T00:30:57;12.70;99.90
17599;DHT22;8918;52.092;5.232;2023-05-10T00:33:23;12.70;99.90
17599;DHT22;8918;52.092;5.232;2023-05-10T00:35:48;12.70;99.90
17599;DHT22;8918;52.092;5.232;2023-05-10T00:38:14;12.70;99.90
17599;DHT22;8918;52.092;5.232;2023-05-10T00:40:39;12.70;99.90
17599;DHT22;8918;52.092;5.232;2023-05-10T00:43:05;12.70;99.90
17599;DHT22;8918;52.092;5.232;2023-05-10T00:45:32;12.70;99.90
17599;DHT22;8918;52.092;5.232;2023-05-10T00:48:00;12.70;99.90
17599;DHT22;8918;52.092;5.232;2023-05-10T00:50:27;12.70;99.90
17599;DHT22;8918;52.092;5.232;2023-05-10T00:52:53;12.70;99.90
17599;DHT22;8918;52.092;5.232;2023-05-10T00:55:19;12.70;99.90
17599;DHT22;8918;52.092;5.232;2023-05-10T00:57:45;12.70;99.90
17599;DHT22;8918;52.092;5.232;2023-05-10T01:00:12;12.80;99.90
17599;DHT22;8918;52.092;5.232;2023-05-10T01:02:38;12.80;99.90
17599;DHT22;8918;52.092;5.232;2023-05-10T01:05:04;12.80;99.90
17599;DHT22;8918;52.092;5.232;2023-05-10T01:07:30;12.80;99.90
17599;DHT22;8918;52.092;5.232;2023-05-10T01:09:56;12.80;99.90
17599;DHT22;8918;52.092;5.232;2023-05-10T01:12:22;12.80;99.90
17599;DHT22;8918;52.092;5.232;2023-05-10T01:14:48;12.80;99.90
17599;DHT22;8918;52.092;5.232;2023-05-10T01:17:14;12.80;99.90
17599;DHT22;8918;52.092;5.232;2023-05-10T01:19:40;12.80;99.90
17599;DHT22;8918;52.092;5.232;2023-05-10T01:25:32;12.80;99.90
17599;DHT22;8918;52.092;5.232;2023-05-10T01:28:25;12.80;99.90
17599;DHT22;8918;52.092;5.232;2023-05-10T01:31:27;12.90;99.90
17599;DHT22;8918;52.092;5.232;2023-05-10T01:34:07;12.90;99.90
17599;DHT22;8918;52.092;5.232;2023-05-10T01:36:40;12.80;99.90
17599;DHT22;8918;52.092;5.232;2023-05-10T01:39:16;12.80;99.90
17599;DHT22;8918;52.092;5.232;2023-05-10T01:44:40;12.80;99.90
17599;DHT22;8918;52.092;5.232;2023-05-10T01:47:11;12.70;99.90
17599;DHT22;8918;52.092;5.232;2023-05-10T01:49:45;12.70;99.90
17599;DHT22;8918;52.092;5.232;2023-05-10T01:52:14;12.70;99.90
17599;DHT22;8918;52.092;5.232;2023-05-10T01:54:47;12.70;99.90
17599;DHT22;8918;52.092;5.232;2023-05-10T01:57:16;12.70;99.90
17599;DHT22;8918;52.092;5.232;2023-05-10T01:59:45;12.70;99.90
17599;DHT22;8918;52.092;5.232;2023-05-10T02:02:13;12.70;99.90
17599;DHT22;8918;52.092;5.232;2023-05-10T02:04:40;12.70;99.90
17599;DHT22;8918;52.092;5.232;2023-05-10T02:07:07;12.70;99.90
17599;DHT22;8918;52.092;5.232;2023-05-10T02:09:34;12.70;99.90
17599;DHT22;8918;52.092;5.232;2023-05-10T02:12:02;12.60;99.90
17599;DHT22;8918;52.092;5.232;2023-05-10T02:14:30;12.60;99.90
17599;DHT22;8918;52.092;5.232;2023-05-10T02:16:58;12.50;99.90
17599;DHT22;8918;52.092;5.232;2023-05-10T02:19:25;12.50;99.90
17599;DHT22;8918;52.092;5.232;2023-05-10T02:21:55;12.50;99.90
17599;DHT22;8918;52.092;5.232;2023-05-10T02:24:21;12.40;99.90
17599;DHT22;8918;52.092;5.232;2023-05-10T02:26:49;12.40;99.90
17599;DHT22;8918;52.092;5.232;2023-05-10T02:29:15;12.30;99.90
17599;DHT22;8918;52.092;5.232;2023-05-10T02:31:42;12.40;99.90
17599;DHT22;8918;52.092;5.232;2023-05-10T02:34:09;12.40;99.90
17599;DHT22;8918;52.092;5.232;2023-05-10T02:36:36;12.40;99.90
17599;DHT22;8918;52.092;5.232;2023-05-10T02:39:03;12.40;99.90
17599;DHT22;8918;52.092;5.232;2023-05-10T02:41:31;12.30;99.90
17599;DHT22;8918;52.092;5.232;2023-05-10T02:43:59;12.20;99.90
17599;DHT22;8918;52.092;5.232;2023-05-10T02:46:26;12.30;99.90
17599;DHT22;8918;52.092;5.232;2023-05-10T02:48:52;12.30;99.90
17599;DHT22;8918;52.092;5.232;2023-05-10T02:51:19;12.30;99.90
17599;DHT22;8918;52.092;5.232;2023-05-10T02:53:50;12.30;99.90
17599;DHT22;8918;52.092;5.232;2023-05-10T02:56:28;12.30;99.90
17599;DHT22;8918;52.092;5.232;2023-05-10T02:58:55;12.30;99.90
17599;DHT22;8918;52.092;5.232;2023-05-10T03:01:20;12.30;99.90
17599;DHT22;8918;52.092;5.232;2023-05-10T03:03:46;12.30;99.90
17599;DHT22;8918;52.092;5.232;2023-05-10T03:06:11;12.30;99.90
17599;DHT22;8918;52.092;5.232;2023-05-10T03:08:37;12.30;99.90
17599;DHT22;8918;52.092;5.232;2023-05-10T03:17:04;12.40;99.90
17599;DHT22;8918;52.092;5.232;2023-05-10T03:19:47;12.40;99.90
17599;DHT22;8918;52.092;5.232;2023-05-10T03:22:23;12.40;99.90
17599;DHT22;8918;52.092;5.232;2023-05-10T03:24:52;12.40;99.90
17599;DHT22;8918;52.092;5.232;2023-05-10T03:27:19;12.40;99.90
17599;DHT22;8918;52.092;5.232;2023-05-10T03:29:46;12.40;99.90
17599;DHT22;8918;52.092;5.232;2023-05-10T03:32:11;12.40;99.90
17599;DHT22;8918;52.092;5.232;2023-05-10T03:34:42;12.40;99.90
17599;DHT22;8918;52.092;5.232;2023-05-10T03:37:09;12.40;99.90
17599;DHT22;8918;52.092;5.232;2023-05-10T03:39:34;12.40;99.90
17599;DHT22;8918;52.092;5.232;2023-05-10T03:42:00;12.40;99.90
17599;DHT22;8918;52.092;5.232;2023-05-10T03:44:25;12.40;99.90
17599;DHT22;8918;52.092;5.232;2023-05-10T03:46:51;12.40;99.90
17599;DHT22;8918;52.092;5.232;2023-05-10T03:49:16;12.30;99.90
17599;DHT22;8918;52.092;5.232;2023-05-10T03:51:42;12.30;99.90
17599;DHT22;8918;52.092;5.232;2023-05-10T03:54:08;12.30;99.90
17599;DHT22;8918;52.092;5.232;2023-05-10T03:56:33;12.30;99.90
17599;DHT22;8918;52.092;5.232;2023-05-10T03:58:59;12.30;99.90
17599;DHT22;8918;52.092;5.232;2023-05-10T04:01:24;12.40;99.90
17599;DHT22;8918;52.092;5.232;2023-05-10T04:03:50;12.30;99.90
17599;DHT22;8918;52.092;5.232;2023-05-10T04:06:15;12.40;99.90
17599;DHT22;8918;52.092;5.232;2023-05-10T04:08:41;12.40;99.90
17599;DHT22;8918;52.092;5.232;2023-05-10T04:11:08;12.40;99.90
17599;DHT22;8918;52.092;5.232;2023-05-10T04:13:34;12.40;99.90
17599;DHT22;8918;52.092;5.232;2023-05-10T04:16:00;12.40;99.90
17599;DHT22;8918;52.092;5.232;2023-05-10T04:18:25;12.40;99.90
17599;DHT22;8918;52.092;5.232;2023-05-10T04:20:51;12.40;99.90
17599;DHT22;8918;52.092;5.232;2023-05-10T04:23:17;12.40;99.90
17599;DHT22;8918;52.092;5.232;2023-05-10T04:25:42;12.40;99.90
17599;DHT22;8918;52.092;5.232;2023-05-10T04:28:08;12.40;99.90
17599;DHT22;8918;52.092;5.232;2023-05-10T04:30:34;12.40;99.90
17599;DHT22;8918;52.092;5.232;2023-05-10T04:33:00;12.40;99.90
17599;DHT22;8918;52.092;5.232;2023-05-10T04:35:27;12.40;99.90
17599;DHT22;8918;52.092;5.232;2023-05-10T04:37:53;12.50;99.90
17599;DHT22;8918;52.092;5.232;2023-05-10T04:40:19;12.40;99.90
17599;DHT22;8918;52.092;5.232;2023-05-10T04:42:45;12.50;99.90
17599;DHT22;8918;52.092;5.232;2023-05-10T04:45:11;12.50;99.90
17599;DHT22;8918;52.092;5.232;2023-05-10T04:47:37;12.50;99.90
17599;DHT22;8918;52.092;5.232;2023-05-10T04:50:03;12.50;99.90
17599;DHT22;8918;52.092;5.232;2023-05-10T04:52:29;12.50;99.90
17599;DHT22;8918;52.092;5.232;2023-05-10T04:54:54;12.60;99.90
17599;DHT22;8918;52.092;5.232;2023-05-10T04:57:20;12.60;99.90
17599;DHT22;8918;52.092;5.232;2023-05-10T04:59:45;12.60;99.90
17599;DHT22;8918;52.092;5.232;2023-05-10T05:02:11;12.60;99.90
17599;DHT22;8918;52.092;5.232;2023-05-10T05:04:36;12.60;99.90
17599;DHT22;8918;52.092;5.232;2023-05-10T05:07:02;12.60;99.90
17599;DHT22;8918;52.092;5.232;2023-05-10T05:09:27;12.60;99.90
17599;DHT22;8918;52.092;5.232;2023-05-10T05:11:53;12.60;99.90
17599;DHT22;8918;52.092;5.232;2023-05-10T05:14:19;12.60;99.90
17599;DHT22;8918;52.092;5.232;2023-05-10T05:16:46;12.60;99.90
17599;DHT22;8918;52.092;5.232;2023-05-10T05:19:11;12.70;99.90
17599;DHT22;8918;52.092;5.232;2023-05-10T05:21:37;12.70;99.90
17599;DHT22;8918;52.092;5.232;2023-05-10T05:24:03;12.70;99.90
17599;DHT22;8918;52.092;5.232;2023-05-10T05:26:29;12.70;99.90
17599;DHT22;8918;52.092;5.232;2023-05-10T05:28:54;12.60;99.90
17599;DHT22;8918;52.092;5.232;2023-05-10T05:31:20;12.70;99.90
17599;DHT22;8918;52.092;5.232;2023-05-10T05:33:46;12.70;99.90
17599;DHT22;8918;52.092;5.232;2023-05-10T05:36:12;12.60;99.90
17599;DHT22;8918;52.092;5.232;2023-05-10T05:38:37;12.60;99.90
17599;DHT22;8918;52.092;5.232;2023-05-10T05:41:03;12.60;99.90
17599;DHT22;8918;52.092;5.232;2023-05-10T05:43:28;12.50;99.90
17599;DHT22;8918;52.092;5.232;2023-05-10T05:45:54;12.50;99.90
17599;DHT22;8918;52.092;5.232;2023-05-10T05:48:20;12.40;99.90
17599;DHT22;8918;52.092;5.232;2023-05-10T05:50:46;12.40;99.90
17599;DHT22;8918;52.092;5.232;2023-05-10T05:53:12;12.40;99.90
17599;DHT22;8918;52.092;5.232;2023-05-10T05:55:37;12.40;99.90
17599;DHT22;8918;52.092;5.232;2023-05-10T05:58:03;12.40;99.90
17599;DHT22;8918;52.092;5.232;2023-05-10T06:00:28;12.40;99.90
17599;DHT22;8918;52.092;5.232;2023-05-10T06:02:54;12.40;99.90
17599;DHT22;8918;52.092;5.232;2023-05-10T06:05:19;12.40;99.90
17599;DHT22;8918;52.092;5.232;2023-05-10T06:07:46;12.40;99.90
17599;DHT22;8918;52.092;5.232;2023-05-10T06:10:11;12.40;99.90
17599;DHT22;8918;52.092;5.232;2023-05-10T06:12:37;12.40;99.90
17599;DHT22;8918;52.092;5.232;2023-05-10T06:15:03;12.30;99.90
17599;DHT22;8918;52.092;5.232;2023-05-10T06:17:29;12.40;99.90
17599;DHT22;8918;52.092;5.232;2023-05-10T06:19:55;12.40;99.90
17599;DHT22;8918;52.092;5.232;2023-05-10T06:22:21;12.50;99.90
17599;DHT22;8918;52.092;5.232;2023-05-10T06:24:48;12.50;99.90
17599;DHT22;8918;52.092;5.232;2023-05-10T06:27:14;12.50;99.90
17599;DHT22;8918;52.092;5.232;2023-05-10T06:29:39;12.50;99.90
17599;DHT22;8918;52.092;5.232;2023-05-10T06:32:05;12.60;99.90
17599;DHT22;8918;52.092;5.232;2023-05-10T06:34:31;12.60;99.90
17599;DHT22;8918;52.092;5.232;2023-05-10T06:36:56;12.70;99.90
17599;DHT22;8918;52.092;5.232;2023-05-10T06:39:22;12.70;99.90
17599;DHT22;8918;52.092;5.232;2023-05-10T06:41:48;12.70;99.90
17599;DHT22;8918;52.092;5.232;2023-05-10T06:44:13;12.50;99.90
17599;DHT22;8918;52.092;5.232;2023-05-10T06:46:39;12.60;99.90
17599;DHT22;8918;52.092;5.232;2023-05-10T06:49:05;12.60;99.90
17599;DHT22;8918;52.092;5.232;2023-05-10T06:51:30;12.60;99.90
17599;DHT22;8918;52.092;5.232;2023-05-10T06:53:56;12.70;99.90
17599;DHT22;8918;52.092;5.232;2023-05-10T06:56:22;12.70;99.90
17599;DHT22;8918;52.092;5.232;2023-05-10T06:58:48;12.70;99.90
17599;DHT22;8918;52.092;5.232;2023-05-10T07:01:13;12.70;99.90
17599;DHT22;8918;52.092;5.232;2023-05-10T07:03:39;12.80;99.90
17599;DHT22;8918;52.092;5.232;2023-05-10T07:06:05;12.80;99.90
17599;DHT22;8918;52.092;5.232;2023-05-10T07:08:32;12.90;99.90
17599;DHT22;8918;52.092;5.232;2023-05-10T07:11:02;12.90;99.90
17599;DHT22;8918;52.092;5.232;2023-05-10T07:13:29;12.90;99.90
17599;DHT22;8918;52.092;5.232;2023-05-10T07:15:55;12.90;99.90
17599;DHT22;8918;52.092;5.232;2023-05-10T07:18:21;13.00;99.90
17599;DHT22;8918;52.092;5.232;2023-05-10T07:20:46;13.10;99.90
17599;DHT22;8918;52.092;5.232;2023-05-10T07:23:12;13.10;99.90
17599;DHT22;8918;52.092;5.232;2023-05-10T07:25:37;13.10;99.90
17599;DHT22;8918;52.092;5.232;2023-05-10T07:28:03;13.20;99.90
17599;DHT22;8918;52.092;5.232;2023-05-10T07:30:29;13.20;99.90
17599;DHT22;8918;52.092;5.232;2023-05-10T07:32:55;13.20;99.90
17599;DHT22;8918;52.092;5.232;2023-05-10T07:35:20;13.20;99.90
17599;DHT22;8918;52.092;5.232;2023-05-10T07:37:46;13.20;99.90
17599;DHT22;8918;52.092;5.232;2023-05-10T07:40:11;13.20;99.90
17599;DHT22;8918;52.092;5.232;2023-05-10T07:42:37;13.30;99.90
17599;DHT22;8918;52.092;5.232;2023-05-10T07:45:03;13.30;99.90
17599;DHT22;8918;52.092;5.232;2023-05-10T07:47:29;13.30;99.90
17599;DHT22;8918;52.092;5.232;2023-05-10T07:49:55;13.30;99.90
17599;DHT22;8918;52.092;5.232;2023-05-10T07:52:20;13.30;99.90
17599;DHT22;8918;52.092;5.232;2023-05-10T07:54:46;13.30;99.90
17599;DHT22;8918;52.092;5.232;2023-05-10T07:57:12;13.20;99.90
17599;DHT22;8918;52.092;5.232;2023-05-10T07:59:39;13.30;99.90
17599;DHT22;8918;52.092;5.232;2023-05-10T08:02:06;13.20;99.90
17599;DHT22;8918;52.092;5.232;2023-05-10T08:04:31;13.30;99.90
17599;DHT22;8918;52.092;5.232;2023-05-10T08:06:57;13.30;99.90
17599;DHT22;8918;52.092;5.232;2023-05-10T08:09:22;13.30;99.90
17599;DHT22;8918;52.092;5.232;2023-05-10T08:11:49;13.30;99.90
17599;DHT22;8918;52.092;5.232;2023-05-10T08:14:15;13.40;99.90
17599;DHT22;8918;52.092;5.232;2023-05-10T08:16:41;13.40;99.90
17599;DHT22;8918;52.092;5.232;2023-05-10T08:19:06;13.50;99.90
17599;DHT22;8918;52.092;5.232;2023-05-10T08:21:32;13.50;99.90
17599;DHT22;8918;52.092;5.232;2023-05-10T08:23:57;13.40;99.90
17599;DHT22;8918;52.092;5.232;2023-05-10T08:26:23;13.40;99.90
17599;DHT22;8918;52.092;5.232;2023-05-10T08:28:48;13.40;99.90
17599;DHT22;8918;52.092;5.232;2023-05-10T08:31:15;13.50;99.90
17599;DHT22;8918;52.092;5.232;2023-05-10T08:33:40;13.50;99.90
17599;DHT22;8918;52.092;5.232;2023-05-10T08:36:06;13.60;99.90
17599;DHT22;8918;52.092;5.232;2023-05-10T08:38:32;13.60;99.90
17599;DHT22;8918;52.092;5.232;2023-05-10T08:40:58;13.60;99.90
17599;DHT22;8918;52.092;5.232;2023-05-10T08:43:28;13.70;99.90
17599;DHT22;8918;52.092;5.232;2023-05-10T08:46:00;13.80;99.90
17599;DHT22;8918;52.092;5.232;2023-05-10T08:48:28;13.80;99.90
17599;DHT22;8918;52.092;5.232;2023-05-10T08:50:54;13.90;99.90
17599;DHT22;8918;52.092;5.232;2023-05-10T08:53:22;13.90;99.90
17599;DHT22;8918;52.092;5.232;2023-05-10T08:55:49;14.00;99.90
17599;DHT22;8918;52.092;5.232;2023-05-10T08:58:15;14.00;99.90
17599;DHT22;8918;52.092;5.232;2023-05-10T09:00:41;14.00;99.90
17599;DHT22;8918;52.092;5.232;2023-05-10T09:03:06;14.00;99.90
17599;DHT22;8918;52.092;5.232;2023-05-10T09:05:32;14.10;99.90
17599;DHT22;8918;52.092;5.232;2023-05-10T09:07:58;14.00;99.90
17599;DHT22;8918;52.092;5.232;2023-05-10T09:10:25;14.00;99.90
17599;DHT22;8918;52.092;5.232;2023-05-10T09:12:53;14.00;99.90
17599;DHT22;8918;52.092;5.232;2023-05-10T09:15:21;14.00;99.90
17599;DHT22;8918;52.092;5.232;2023-05-10T09:17:47;14.00;99.90
17599;DHT22;8918;52.092;5.232;2023-05-10T09:20:14;14.00;99.90
17599;DHT22;8918;52.092;5.232;2023-05-10T09:22:39;14.00;99.90
17599;DHT22;8918;52.092;5.232;2023-05-10T09:25:10;13.90;99.90
17599;DHT22;8918;52.092;5.232;2023-05-10T09:27:37;13.90;99.90
17599;DHT22;8918;52.092;5.232;2023-05-10T09:30:04;13.90;99.90
17599;DHT22;8918;52.092;5.232;2023-05-10T09:32:43;13.90;99.90
17599;DHT22;8918;52.092;5.232;2023-05-10T09:35:20;13.90;99.90
17599;DHT22;8918;52.092;5.232;2023-05-10T09:37:49;13.90;99.90
17599;DHT22;8918;52.092;5.232;2023-05-10T09:40:22;14.00;99.90
17599;DHT22;8918;52.092;5.232;2023-05-10T09:43:00;14.10;99.90
17599;DHT22;8918;52.092;5.232;2023-05-10T09:45:28;14.30;99.90
17599;DHT22;8918;52.092;5.232;2023-05-10T09:47:56;14.40;99.90
17599;DHT22;8918;52.092;5.232;2023-05-10T09:50:22;14.40;99.90
17599;DHT22;8918;52.092;5.232;2023-05-10T09:52:53;14.50;99.90
17599;DHT22;8918;52.092;5.232;2023-05-10T09:55:20;14.60;99.90
17599;DHT22;8918;52.092;5.232;2023-05-10T09:57:47;14.60;99.90
17599;DHT22;8918;52.092;5.232;2023-05-10T10:00:18;14.60;99.90
17599;DHT22;8918;52.092;5.232;2023-05-10T10:02:45;14.60;99.90
17599;DHT22;8918;52.092;5.232;2023-05-10T10:05:11;14.60;99.90
17599;DHT22;8918;52.092;5.232;2023-05-10T10:07:37;14.50;99.90
17599;DHT22;8918;52.092;5.232;2023-05-10T10:10:03;14.50;99.90
17599;DHT22;8918;52.092;5.232;2023-05-10T10:12:30;14.40;99.90
17599;DHT22;8918;52.092;5.232;2023-05-10T10:14:56;14.40;99.90
17599;DHT22;8918;52.092;5.232;2023-05-10T10:17:24;14.40;99.90
17599;DHT22;8918;52.092;5.232;2023-05-10T10:19:52;14.40;99.90
17599;DHT22;8918;52.092;5.232;2023-05-10T10:22:18;14.50;99.90
17599;DHT22;8918;52.092;5.232;2023-05-10T10:24:44;14.50;99.90
17599;DHT22;8918;52.092;5.232;2023-05-10T10:29:49;14.70;99.90
17599;DHT22;8918;52.092;5.232;2023-05-10T10:32:35;14.70;99.90
17599;DHT22;8918;52.092;5.232;2023-05-10T10:35:03;14.70;99.90
17599;DHT22;8918;52.092;5.232;2023-05-10T10:37:46;14.70;99.90
17599;DHT22;8918;52.092;5.232;2023-05-10T10:40:26;14.70;99.90
17599;DHT22;8918;52.092;5.232;2023-05-10T10:42:53;14.70;99.90
17599;DHT22;8918;52.092;5.232;2023-05-10T10:45:19;14.70;99.90
17599;DHT22;8918;52.092;5.232;2023-05-10T10:47:46;14.70;99.90
17599;DHT22;8918;52.092;5.232;2023-05-10T10:50:12;14.70;99.90
17599;DHT22;8918;52.092;5.232;2023-05-10T10:52:45;14.60;99.90
17599;DHT22;8918;52.092;5.232;2023-05-10T10:55:18;14.70;99.90
17599;DHT22;8918;52.092;5.232;2023-05-10T10:57:46;14.80;99.90
17599;DHT22;8918;52.092;5.232;2023-05-10T11:00:38;14.90;99.90
17599;DHT22;8918;52.092;5.232;2023-05-10T11:03:08;15.00;99.90
17599;DHT22;8918;52.092;5.232;2023-05-10T11:05:50;15.20;99.90
17599;DHT22;8918;52.092;5.232;2023-05-10T11:08:31;15.40;99.90
17599;DHT22;8918;52.092;5.232;2023-05-10T11:13:31;15.70;99.90
17599;DHT22;8918;52.092;5.232;2023-05-10T11:15:58;15.90;99.90
17599;DHT22;8918;52.092;5.232;2023-05-10T11:18:28;16.10;99.90
17599;DHT22;8918;52.092;5.232;2023-05-10T11:20:58;16.20;99.90
17599;DHT22;8918;52.092;5.232;2023-05-10T11:23:31;16.20;99.90
17599;DHT22;8918;52.092;5.232;2023-05-10T11:25:58;16.20;99.90
17599;DHT22;8918;52.092;5.232;2023-05-10T11:28:24;16.20;99.90
17599;DHT22;8918;52.092;5.232;2023-05-10T11:30:51;16.10;99.90
17599;DHT22;8918;52.092;5.232;2023-05-10T11:33:18;16.00;99.90
17599;DHT22;8918;52.092;5.232;2023-05-10T11:35:45;15.90;99.90
17599;DHT22;8918;52.092;5.232;2023-05-10T11:38:11;15.70;99.90
17599;DHT22;8918;52.092;5.232;2023-05-10T11:40:38;15.60;99.90
17599;DHT22;8918;52.092;5.232;2023-05-10T11:43:05;15.60;99.90
17599;DHT22;8918;52.092;5.232;2023-05-10T11:45:34;15.70;99.90
17599;DHT22;8918;52.092;5.232;2023-05-10T11:48:00;15.80;99.90
17599;DHT22;8918;52.092;5.232;2023-05-10T11:50:26;15.90;99.90
17599;DHT22;8918;52.092;5.232;2023-05-10T11:52:53;16.00;99.90
17599;DHT22;8918;52.092;5.232;2023-05-10T11:55:19;16.20;99.90
17599;DHT22;8918;52.092;5.232;2023-05-10T11:57:45;16.40;99.90
17599;DHT22;8918;52.092;5.232;2023-05-10T12:00:12;16.50;99.90
17599;DHT22;8918;52.092;5.232;2023-05-10T12:02:38;16.60;99.90
17599;DHT22;8918;52.092;5.232;2023-05-10T12:05:04;16.80;99.90
17599;DHT22;8918;52.092;5.232;2023-05-10T12:07:31;17.00;99.90
17599;DHT22;8918;52.092;5.232;2023-05-10T12:10:07;17.30;99.90
17599;DHT22;8918;52.092;5.232;2023-05-10T12:15:17;17.70;99.90
17599;DHT22;8918;52.092;5.232;2023-05-10T12:17:44;17.50;99.90
17599;DHT22;8918;52.092;5.232;2023-05-10T12:20:21;17.10;99.90
17599;DHT22;8918;52.092;5.232;2023-05-10T12:22:56;16.80;99.90
17599;DHT22;8918;52.092;5.232;2023-05-10T12:25:23;16.60;99.90
17599;DHT22;8918;52.092;5.232;2023-05-10T12:27:51;16.40;99.90
17599;DHT22;8918;52.092;5.232;2023-05-10T12:30:27;16.20;99.90
17599;DHT22;8918;52.092;5.232;2023-05-10T12:32:53;16.10;99.90
17599;DHT22;8918;52.092;5.232;2023-05-10T12:35:20;16.00;99.90
17599;DHT22;8918;52.092;5.232;2023-05-10T12:37:51;15.90;99.90
17599;DHT22;8918;52.092;5.232;2023-05-10T12:40:16;15.70;99.90
17599;DHT22;8918;52.092;5.232;2023-05-10T12:42:42;15.70;99.90
17599;DHT22;8918;52.092;5.232;2023-05-10T12:45:10;15.60;99.90
17599;DHT22;8918;52.092;5.232;2023-05-10T12:47:36;15.50;99.90
17599;DHT22;8918;52.092;5.232;2023-05-10T12:50:03;15.50;99.90
17599;DHT22;8918;52.092;5.232;2023-05-10T12:52:29;15.30;99.90
17599;DHT22;8918;52.092;5.232;2023-05-10T12:54:54;15.00;99.90
17599;DHT22;8918;52.092;5.232;2023-05-10T12:57:21;14.70;99.90
17599;DHT22;8918;52.092;5.232;2023-05-10T12:59:47;14.50;99.90
17599;DHT22;8918;52.092;5.232;2023-05-10T13:02:12;14.40;99.90
17599;DHT22;8918;52.092;5.232;2023-05-10T13:04:40;14.20;99.90
17599;DHT22;8918;52.092;5.232;2023-05-10T13:07:06;14.10;99.90
17599;DHT22;8918;52.092;5.232;2023-05-10T13:09:32;14.10;99.90
17599;DHT22;8918;52.092;5.232;2023-05-10T13:11:57;14.00;99.90
17599;DHT22;8918;52.092;5.232;2023-05-10T13:14:23;13.90;99.90
17599;DHT22;8918;52.092;5.232;2023-05-10T13:16:52;13.90;99.90
17599;DHT22;8918;52.092;5.232;2023-05-10T13:19:17;13.90;99.90
17599;DHT22;8918;52.092;5.232;2023-05-10T13:21:43;14.00;99.90
17599;DHT22;8918;52.092;5.232;2023-05-10T13:24:12;14.00;99.90
17599;DHT22;8918;52.092;5.232;2023-05-10T13:26:41;14.10;99.90
17599;DHT22;8918;52.092;5.232;2023-05-10T13:29:07;14.20;99.90
17599;DHT22;8918;52.092;5.232;2023-05-10T13:31:34;14.20;99.90
17599;DHT22;8918;52.092;5.232;2023-05-10T13:33:59;14.30;99.90
17599;DHT22;8918;52.092;5.232;2023-05-10T13:36:25;14.30;99.90
17599;DHT22;8918;52.092;5.232;2023-05-10T13:38:51;14.30;99.90
17599;DHT22;8918;52.092;5.232;2023-05-10T13:41:17;14.30;99.90
17599;DHT22;8918;52.092;5.232;2023-05-10T13:43:43;14.30;99.90
17599;DHT22;8918;52.092;5.232;2023-05-10T13:46:08;14.30;99.90
17599;DHT22;8918;52.092;5.232;2023-05-10T13:48:34;14.40;99.90
17599;DHT22;8918;52.092;5.232;2023-05-10T13:50:59;14.40;99.90
17599;DHT22;8918;52.092;5.232;2023-05-10T13:53:25;14.40;99.90
17599;DHT22;8918;52.092;5.232;2023-05-10T13:55:50;14.30;99.90
17599;DHT22;8918;52.092;5.232;2023-05-10T13:58:16;14.40;99.90
17599;DHT22;8918;52.092;5.232;2023-05-10T14:00:41;14.40;99.90
17599;DHT22;8918;52.092;5.232;2023-05-10T14:03:07;14.40;99.90
17599;DHT22;8918;52.092;5.232;2023-05-10T14:05:36;14.40;99.90
17599;DHT22;8918;52.092;5.232;2023-05-10T14:08:01;14.40;99.90
17599;DHT22;8918;52.092;5.232;2023-05-10T14:10:27;14.40;99.90
17599;DHT22;8918;52.092;5.232;2023-05-10T14:12:52;14.40;99.90
17599;DHT22;8918;52.092;5.232;2023-05-10T14:15:18;14.50;99.90
17599;DHT22;8918;52.092;5.232;2023-05-10T14:17:43;14.50;99.90
17599;DHT22;8918;52.092;5.232;2023-05-10T14:20:09;14.40;99.90
17599;DHT22;8918;52.092;5.232;2023-05-10T14:22:35;14.50;99.90
17599;DHT22;8918;52.092;5.232;2023-05-10T14:25:01;14.50;99.90
17599;DHT22;8918;52.092;5.232;2023-05-10T14:27:27;14.50;99.90
17599;DHT22;8918;52.092;5.232;2023-05-10T14:29:52;14.50;99.90
17599;DHT22;8918;52.092;5.232;2023-05-10T14:32:18;14.50;99.90
17599;DHT22;8918;52.092;5.232;2023-05-10T14:34:44;14.50;99.90
17599;DHT22;8918;52.092;5.232;2023-05-10T14:37:10;14.40;99.90
17599;DHT22;8918;52.092;5.232;2023-05-10T14:39:36;14.50;99.90
17599;DHT22;8918;52.092;5.232;2023-05-10T14:42:02;14.50;99.90
17599;DHT22;8918;52.092;5.232;2023-05-10T14:44:28;14.50;99.90
17599;DHT22;8918;52.092;5.232;2023-05-10T14:46:53;14.50;99.90
17599;DHT22;8918;52.092;5.232;2023-05-10T14:49:19;14.60;99.90
17599;DHT22;8918;52.092;5.232;2023-05-10T14:51:47;14.60;99.90
17599;DHT22;8918;52.092;5.232;2023-05-10T14:54:13;14.60;99.90
17599;DHT22;8918;52.092;5.232;2023-05-10T14:56:39;14.60;99.90
17599;DHT22;8918;52.092;5.232;2023-05-10T14:59:06;14.70;99.90
17599;DHT22;8918;52.092;5.232;2023-05-10T15:01:32;14.80;99.90
17599;DHT22;8918;52.092;5.232;2023-05-10T15:03:58;14.80;99.90
17599;DHT22;8918;52.092;5.232;2023-05-10T15:06:30;14.90;99.90
17599;DHT22;8918;52.092;5.232;2023-05-10T15:08:56;14.80;99.90
17599;DHT22;8918;52.092;5.232;2023-05-10T15:11:22;14.70;99.90
17599;DHT22;8918;52.092;5.232;2023-05-10T15:13:48;14.80;99.90
17599;DHT22;8918;52.092;5.232;2023-05-10T15:16:13;14.80;99.90
17599;DHT22;8918;52.092;5.232;2023-05-10T15:18:39;14.80;99.90
17599;DHT22;8918;52.092;5.232;2023-05-10T15:21:04;14.80;99.90
17599;DHT22;8918;52.092;5.232;2023-05-10T15:23:30;14.90;99.90
17599;DHT22;8918;52.092;5.232;2023-05-10T15:25:55;14.90;99.90
17599;DHT22;8918;52.092;5.232;2023-05-10T15:28:21;14.90;99.90
17599;DHT22;8918;52.092;5.232;2023-05-10T15:30:47;14.90;99.90
17599;DHT22;8918;52.092;5.232;2023-05-10T15:33:13;14.90;99.90
17599;DHT22;8918;52.092;5.232;2023-05-10T15:35:39;14.90;99.90
17599;DHT22;8918;52.092;5.232;2023-05-10T15:38:05;14.90;99.90
17599;DHT22;8918;52.092;5.232;2023-05-10T15:40:31;15.00;99.90
17599;DHT22;8918;52.092;5.232;2023-05-10T15:42:56;15.00;99.90
17599;DHT22;8918;52.092;5.232;2023-05-10T15:45:22;14.90;99.90
17599;DHT22;8918;52.092;5.232;2023-05-10T15:47:48;15.00;99.90
17599;DHT22;8918;52.092;5.232;2023-05-10T15:50:14;15.00;99.90
17599;DHT22;8918;52.092;5.232;2023-05-10T15:52:40;14.90;99.90
17599;DHT22;8918;52.092;5.232;2023-05-10T15:55:07;14.90;99.90
17599;DHT22;8918;52.092;5.232;2023-05-10T15:57:38;14.90;99.90
17599;DHT22;8918;52.092;5.232;2023-05-10T16:00:06;15.00;99.90
17599;DHT22;8918;52.092;5.232;2023-05-10T16:02:32;15.00;99.90
17599;DHT22;8918;52.092;5.232;2023-05-10T16:04:57;15.00;99.90